createdAt,value
2022-12-12T00:01:21.347Z,28.35
2022-12-12T00:03:48.372Z,24.60
2022-12-12T00:06:15.417Z,28.08
2022-12-12T00:08:42.203Z,27.27
2022-12-12T00:11:09.372Z,24.52
2022-12-12T00:13:37.019Z,27.40
2022-12-12T00:16:08.202Z,23.10
2022-12-12T00:18:38.881Z,28.75
2022-12-12T00:21:11.669Z,27.92
2022-12-12T00:23:38.344Z,29.00
2022-12-12T00:26:08.125Z,25.27
2022-12-12T00:28:35.069Z,28.50
2022-12-12T00:31:01.780Z,27.75
2022-12-12T00:33:28.548Z,26.20
2022-12-12T00:35:55.840Z,24.83
2022-12-12T00:38:23.842Z,29.20
2022-12-12T00:40:56.441Z,27.25
2022-12-12T00:43:23.707Z,26.15
2022-12-12T00:45:50.468Z,26.33
2022-12-12T00:48:17.256Z,26.67
2022-12-12T00:50:44.648Z,26.73
2022-12-12T00:53:13.228Z,27.52
2022-12-12T00:55:40.279Z,24.00
2022-12-12T00:58:07.025Z,23.83
2022-12-12T01:00:34.303Z,27.38
2022-12-12T01:03:01.055Z,27.27
2022-12-12T01:05:28.059Z,25.27
2022-12-12T01:07:54.727Z,27.95
2022-12-12T01:10:21.419Z,29.38
2022-12-12T01:12:49.205Z,30.48
2022-12-12T01:15:16.084Z,24.85
2022-12-12T01:17:44.015Z,27.63
2022-12-12T01:20:20.343Z,28.60
2022-12-12T01:22:47.768Z,29.00
2022-12-12T01:25:16.837Z,29.13
2022-12-12T01:27:43.838Z,29.08
2022-12-12T01:30:13.921Z,29.17
2022-12-12T01:32:40.754Z,26.05
2022-12-12T01:35:08.242Z,28.42
2022-12-12T01:37:35.977Z,28.75
2022-12-12T01:40:04.560Z,26.95
2022-12-12T01:42:31.299Z,29.48
2022-12-12T01:44:58.165Z,31.17
2022-12-12T01:47:25.479Z,27.40
2022-12-12T01:49:52.217Z,29.27
2022-12-12T01:52:32.869Z,30.60
2022-12-12T01:55:02.611Z,28.40
2022-12-12T01:57:37.879Z,30.33
2022-12-12T02:00:08.278Z,30.73
2022-12-12T02:02:35.904Z,27.40
2022-12-12T02:05:12.456Z,29.75
2022-12-12T02:07:39.361Z,26.75
2022-12-12T02:10:06.543Z,30.70
2022-12-12T02:12:33.200Z,29.52
2022-12-12T02:15:00.167Z,26.38
2022-12-12T02:18:03.710Z,27.65
2022-12-12T02:20:45.703Z,25.25
2022-12-12T02:23:52.693Z,26.30
2022-12-12T02:26:34.128Z,23.90
2022-12-12T02:29:19.638Z,26.60
2022-12-12T02:31:59.188Z,24.35
2022-12-12T02:35:08.051Z,23.40
2022-12-12T02:37:57.665Z,23.60
2022-12-12T02:40:27.223Z,23.80
2022-12-12T02:43:14.142Z,23.88
2022-12-12T02:45:51.150Z,22.58
2022-12-12T02:48:24.598Z,25.92
2022-12-12T02:50:54.223Z,21.70
2022-12-12T02:53:23.609Z,25.23
2022-12-12T02:56:00.906Z,23.35
2022-12-12T02:58:27.711Z,22.80
2022-12-12T03:01:11.493Z,23.65
2022-12-12T03:04:15.623Z,23.65
2022-12-12T03:07:34.473Z,20.98
2022-12-12T03:10:30.815Z,20.27
2022-12-12T03:13:42.890Z,24.27
2022-12-12T03:16:19.204Z,19.52
2022-12-12T03:19:10.161Z,23.92
2022-12-12T03:21:54.872Z,21.33
2022-12-12T03:24:54.162Z,24.08
2022-12-12T03:27:35.736Z,20.08
2022-12-12T03:30:04.830Z,24.23
2022-12-12T03:32:52.734Z,21.08
2022-12-12T03:35:36.203Z,22.42
2022-12-12T03:38:25.961Z,20.48
2022-12-12T03:40:59.201Z,23.23
2022-12-12T03:43:33.743Z,21.30
2022-12-12T03:46:20.965Z,21.88
2022-12-12T03:48:50.341Z,22.50
2022-12-12T03:51:39.410Z,25.30
2022-12-12T03:54:10.385Z,22.13
2022-12-12T03:59:35.232Z,20.80
2022-12-12T04:02:19.273Z,22.30
2022-12-12T04:05:11.358Z,21.48
2022-12-12T04:07:45.194Z,22.73
2022-12-12T04:10:31.230Z,22.45
2022-12-12T04:13:32.045Z,20.25
2022-12-12T04:16:02.429Z,19.00
2022-12-12T04:18:41.507Z,23.50
2022-12-12T04:21:36.196Z,22.15
2022-12-12T04:24:30.212Z,22.38
2022-12-12T04:27:03.717Z,27.60
2022-12-12T04:29:37.534Z,27.08
2022-12-12T04:32:13.435Z,28.38
2022-12-12T04:34:49.490Z,25.95
2022-12-12T04:37:21.599Z,27.98
2022-12-12T04:39:50.359Z,27.27
2022-12-12T04:42:22.947Z,24.95
2022-12-12T04:44:54.368Z,27.10
2022-12-12T04:47:23.062Z,27.08
2022-12-12T04:49:52.515Z,23.13
2022-12-12T04:52:21.002Z,25.42
2022-12-12T04:55:12.839Z,23.33
2022-12-12T04:57:43.123Z,27.48
2022-12-12T05:00:17.736Z,27.30
2022-12-12T05:03:00.171Z,25.63
2022-12-12T05:05:35.125Z,27.10
2022-12-12T05:08:14.058Z,29.75
2022-12-12T05:10:45.923Z,27.23
2022-12-12T05:13:18.804Z,26.90
2022-12-12T05:15:48.361Z,29.00
2022-12-12T05:18:15.384Z,28.73
2022-12-12T05:20:42.111Z,24.73
2022-12-12T05:23:08.846Z,28.73
2022-12-12T05:25:35.590Z,24.13
2022-12-12T05:28:02.577Z,27.45
2022-12-12T05:30:29.861Z,27.27
2022-12-12T05:32:56.728Z,26.83
2022-12-12T05:35:23.840Z,26.25
2022-12-12T05:37:52.201Z,27.52
2022-12-12T05:40:21.371Z,25.85
2022-12-12T05:42:48.292Z,27.63
2022-12-12T05:45:15.540Z,26.63
2022-12-12T05:47:42.347Z,28.15
2022-12-12T05:50:10.247Z,26.23
2022-12-12T05:52:37.295Z,27.23
2022-12-12T05:55:05.193Z,27.95
2022-12-12T05:57:31.871Z,25.65
2022-12-12T05:59:58.664Z,28.10
2022-12-12T06:02:25.376Z,27.55
2022-12-12T06:04:52.156Z,24.05
2022-12-12T06:07:18.874Z,26.85
2022-12-12T06:09:45.626Z,24.50
2022-12-12T06:12:12.470Z,24.80
2022-12-12T06:14:39.421Z,27.48
2022-12-12T06:17:06.190Z,24.55
2022-12-12T06:19:32.997Z,24.42
2022-12-12T06:21:59.692Z,23.33
2022-12-12T06:24:27.019Z,26.63
2022-12-12T06:26:53.829Z,22.27
2022-12-12T06:29:20.505Z,25.13
2022-12-12T06:31:47.442Z,26.73
2022-12-12T06:34:14.169Z,22.02
2022-12-12T06:36:41.162Z,25.88
2022-12-12T06:39:07.917Z,25.08
2022-12-12T06:41:34.910Z,23.48
2022-12-12T06:44:01.729Z,25.83
2022-12-12T06:46:29.772Z,26.23
2022-12-12T06:48:57.499Z,26.40
2022-12-12T06:51:33.245Z,25.33
2022-12-12T06:54:00.258Z,25.17
2022-12-12T06:56:27.365Z,25.02
2022-12-12T06:58:55.771Z,24.15
2022-12-12T07:01:24.088Z,26.35
2022-12-12T07:03:51.876Z,26.90
2022-12-12T07:06:20.868Z,25.77
2022-12-12T07:08:48.107Z,24.45
2022-12-12T07:11:18.461Z,25.25
2022-12-12T07:13:45.267Z,27.33
2022-12-12T07:16:12.672Z,24.42
2022-12-12T07:18:39.529Z,24.80
2022-12-12T07:21:08.052Z,26.92
2022-12-12T07:23:35.249Z,25.58
2022-12-12T07:26:07.210Z,26.23
2022-12-12T07:28:34.024Z,25.75
2022-12-12T07:31:04.976Z,25.77
2022-12-12T07:36:11.688Z,23.45
2022-12-12T07:38:38.413Z,23.00
2022-12-12T07:41:13.975Z,25.05
2022-12-12T07:43:44.079Z,25.45
2022-12-12T07:46:14.884Z,23.15
2022-12-12T07:48:41.996Z,24.75
2022-12-12T07:51:09.390Z,25.00
2022-12-12T07:53:36.179Z,24.90
2022-12-12T07:56:07.547Z,25.02
2022-12-12T07:58:34.592Z,24.65
2022-12-12T08:01:01.423Z,24.33
2022-12-12T08:03:28.168Z,22.75
2022-12-12T08:05:54.805Z,24.92
2022-12-12T08:08:21.563Z,23.48
2022-12-12T08:10:48.321Z,22.38
2022-12-12T08:13:15.015Z,24.77
2022-12-12T08:15:43.139Z,23.77
2022-12-12T08:18:09.963Z,23.58
2022-12-12T08:20:40.342Z,21.77
2022-12-12T08:23:07.927Z,23.13
2022-12-12T08:25:35.795Z,24.88
2022-12-12T08:28:02.662Z,26.17
2022-12-12T08:30:29.361Z,25.52
2022-12-12T08:32:56.076Z,25.80
2022-12-12T08:35:22.784Z,25.20
2022-12-12T08:37:49.475Z,21.67
2022-12-12T08:40:16.308Z,24.80
2022-12-12T08:42:43.071Z,24.98
2022-12-12T08:45:10.341Z,21.25
2022-12-12T08:47:37.069Z,25.80
2022-12-12T08:50:04.884Z,21.88
2022-12-12T08:52:31.639Z,24.90
2022-12-12T08:54:58.469Z,24.58
2022-12-12T08:57:26.124Z,22.50
2022-12-12T08:59:53.055Z,23.63
2022-12-12T09:02:19.966Z,25.38
2022-12-12T09:04:46.838Z,25.80
2022-12-12T09:07:13.548Z,24.25
2022-12-12T09:09:40.343Z,26.25
2022-12-12T09:12:07.511Z,25.17
2022-12-12T09:14:34.251Z,25.23
2022-12-12T09:17:00.983Z,25.17
2022-12-12T09:19:27.816Z,27.02
2022-12-12T09:21:54.558Z,24.85
2022-12-12T09:24:21.228Z,23.65
2022-12-12T09:26:47.893Z,25.70
2022-12-12T09:29:14.798Z,27.33
2022-12-12T09:31:41.506Z,21.33
2022-12-12T09:34:08.275Z,23.50
2022-12-12T09:36:35.071Z,22.50
2022-12-12T09:39:01.954Z,24.02
2022-12-12T09:41:30.725Z,22.77
2022-12-12T09:44:05.178Z,23.60
2022-12-12T09:46:49.186Z,22.52
2022-12-12T09:49:39.872Z,22.13
2022-12-12T09:52:15.643Z,21.30
2022-12-12T09:54:43.226Z,24.23
2022-12-12T09:57:16.069Z,21.90
2022-12-12T09:59:48.702Z,23.67
2022-12-12T10:02:36.764Z,21.92
2022-12-12T10:05:16.221Z,20.92
2022-12-12T10:07:52.148Z,21.60
2022-12-12T10:10:34.664Z,24.25
2022-12-12T10:13:04.019Z,24.50
2022-12-12T10:15:44.003Z,21.95
2022-12-12T10:18:24.927Z,21.30
2022-12-12T10:20:56.226Z,21.30
2022-12-12T10:23:46.428Z,24.15
2022-12-12T10:26:17.619Z,23.00
2022-12-12T10:28:44.958Z,26.05
2022-12-12T10:31:33.223Z,24.55
2022-12-12T10:34:17.953Z,21.55
2022-12-12T10:37:21.984Z,21.45
2022-12-12T10:40:00.784Z,24.90
2022-12-12T10:42:48.538Z,22.10
2022-12-12T10:45:27.314Z,21.95
2022-12-12T10:47:54.096Z,25.05
2022-12-12T10:50:44.021Z,21.58
2022-12-12T10:53:12.385Z,24.27
2022-12-12T10:55:45.007Z,23.77
2022-12-12T10:58:11.879Z,21.30
2022-12-12T11:00:41.725Z,22.98
2022-12-12T11:03:28.134Z,22.88
2022-12-12T11:05:56.895Z,23.33
2022-12-12T11:08:34.903Z,22.42
2022-12-12T11:11:24.205Z,19.55
2022-12-12T11:13:55.904Z,22.27
2022-12-12T11:16:30.518Z,21.40
2022-12-12T11:19:00.575Z,22.30
2022-12-12T11:21:29.215Z,19.90
2022-12-12T11:23:59.499Z,22.33
2022-12-12T11:26:29.141Z,20.73
2022-12-12T11:29:02.653Z,21.80
2022-12-12T11:31:33.636Z,22.42
2022-12-12T11:36:35.336Z,22.33
2022-12-12T11:39:14.318Z,21.13
2022-12-12T11:42:01.142Z,21.33
2022-12-12T11:44:36.441Z,18.48
2022-12-12T11:47:18.245Z,19.73
2022-12-12T11:50:15.392Z,20.42
2022-12-12T11:52:42.266Z,18.08
2022-12-12T11:55:17.391Z,20.92
2022-12-12T11:58:06.168Z,19.10
2022-12-12T12:00:49.883Z,18.45
2022-12-12T12:03:54.033Z,17.25
2022-12-12T12:06:59.081Z,17.45
2022-12-12T12:09:53.384Z,17.33
2022-12-12T12:12:47.466Z,19.05
2022-12-12T12:15:50.681Z,17.92
2022-12-12T12:18:25.073Z,18.77
2022-12-12T12:21:00.442Z,18.10
2022-12-12T12:23:57.938Z,18.52
2022-12-12T12:26:41.845Z,17.98
2022-12-12T12:29:31.987Z,18.35
2022-12-12T12:32:25.961Z,17.55
2022-12-12T12:35:13.007Z,16.88
2022-12-12T12:38:11.357Z,17.45
2022-12-12T12:41:08.692Z,16.58
2022-12-12T12:43:57.349Z,17.50
2022-12-12T12:46:47.392Z,18.23
2022-12-12T12:49:32.993Z,17.10
2022-12-12T12:52:06.090Z,17.90
2022-12-12T12:54:38.834Z,17.02
2022-12-12T12:57:24.319Z,17.00
2022-12-12T12:59:57.641Z,15.13
2022-12-12T13:03:00.304Z,16.33
2022-12-12T13:05:35.301Z,15.68
2022-12-12T13:08:34.526Z,14.27
2022-12-12T13:11:36.876Z,14.32
2022-12-12T13:14:23.270Z,13.77
2022-12-12T13:16:53.891Z,14.63
2022-12-12T13:19:44.176Z,14.70
2022-12-12T13:22:14.522Z,13.93
2022-12-12T13:25:03.088Z,13.75
2022-12-12T13:27:36.438Z,15.10
2022-12-12T13:30:15.733Z,14.23
2022-12-12T13:33:20.485Z,13.50
2022-12-12T13:35:54.627Z,12.48
2022-12-12T13:38:29.929Z,12.68
2022-12-12T13:41:04.436Z,13.35
2022-12-12T13:43:34.127Z,13.68
2022-12-12T13:46:20.944Z,12.80
2022-12-12T13:49:05.900Z,14.38
2022-12-12T13:51:41.312Z,12.80
2022-12-12T13:54:13.290Z,13.10
2022-12-12T13:56:57.789Z,13.30
2022-12-12T13:59:27.238Z,13.25
2022-12-12T14:02:01.348Z,14.15
2022-12-12T14:04:28.181Z,13.35
2022-12-12T14:07:16.660Z,13.27
2022-12-12T14:09:53.245Z,12.63
2022-12-12T14:12:31.100Z,13.13
2022-12-12T14:15:03.410Z,13.68
2022-12-12T14:17:40.051Z,14.23
2022-12-12T14:20:34.594Z,13.77
2022-12-12T14:23:23.396Z,14.00
2022-12-12T14:25:50.466Z,13.70
2022-12-12T14:28:32.298Z,14.02
2022-12-12T14:31:14.904Z,14.68
2022-12-12T14:34:04.510Z,12.75
2022-12-12T14:37:26.401Z,13.25
2022-12-12T14:40:14.397Z,13.57
2022-12-12T14:43:19.289Z,14.18
2022-12-12T14:45:56.263Z,14.27
2022-12-12T14:48:36.396Z,13.35
2022-12-12T14:51:12.264Z,14.70
2022-12-12T14:53:38.980Z,17.15
2022-12-12T14:56:10.123Z,14.65
2022-12-12T14:58:47.422Z,15.73
2022-12-12T15:01:19.162Z,13.40
2022-12-12T15:03:49.882Z,14.35
2022-12-12T15:06:34.026Z,14.48
2022-12-12T15:09:31.275Z,14.18
2022-12-12T15:12:10.233Z,15.32
2022-12-12T15:14:57.390Z,15.68
2022-12-12T15:17:26.897Z,14.95
2022-12-12T15:20:18.676Z,15.20
2022-12-12T15:22:58.901Z,15.23
2022-12-12T15:25:29.884Z,14.88
2022-12-12T15:30:52.361Z,16.88
2022-12-12T15:33:26.166Z,15.98
2022-12-12T15:36:01.481Z,15.13
2022-12-12T15:38:29.663Z,16.13
2022-12-12T15:40:58.922Z,15.00
2022-12-12T15:43:28.322Z,15.27
2022-12-12T15:46:00.240Z,16.60
2022-12-12T15:48:27.420Z,13.40
2022-12-12T15:50:58.009Z,16.02
2022-12-12T15:53:29.710Z,15.30
2022-12-12T15:56:08.234Z,16.70
2022-12-12T15:58:47.118Z,15.98
2022-12-12T16:01:20.462Z,17.60
2022-12-12T16:04:00.730Z,17.45
2022-12-12T16:06:30.869Z,17.67
2022-12-12T16:09:02.065Z,17.00
2022-12-12T16:11:50.506Z,17.50
2022-12-12T16:14:41.338Z,14.70
2022-12-12T16:17:26.273Z,15.98
2022-12-12T16:19:56.105Z,13.85
2022-12-12T16:22:43.964Z,17.35
2022-12-12T16:25:12.830Z,21.40
2022-12-12T16:27:39.620Z,16.95
2022-12-12T16:30:06.799Z,16.90
2022-12-12T16:32:33.917Z,15.35
2022-12-12T16:35:00.618Z,16.88
2022-12-12T16:37:27.700Z,16.45
2022-12-12T16:39:54.462Z,16.63
2022-12-12T16:42:22.024Z,17.00
2022-12-12T16:44:48.764Z,17.83
2022-12-12T16:47:22.335Z,17.15
2022-12-12T16:49:49.721Z,23.30
2022-12-12T16:52:20.171Z,18.42
2022-12-12T16:54:53.118Z,21.42
2022-12-12T16:57:21.439Z,23.40
2022-12-12T16:59:48.416Z,22.23
2022-12-12T17:02:23.351Z,21.98
2022-12-12T17:04:50.603Z,20.55
2022-12-12T17:07:17.716Z,20.33
2022-12-12T17:09:44.845Z,20.88
2022-12-12T17:12:13.129Z,21.75
2022-12-12T17:14:40.083Z,22.52
2022-12-12T17:17:06.965Z,21.58
2022-12-12T17:19:33.868Z,25.00
2022-12-12T17:22:00.882Z,26.10
2022-12-12T17:24:28.202Z,24.42
2022-12-12T17:26:55.074Z,23.80
2022-12-12T17:29:22.102Z,24.23
2022-12-12T17:31:48.875Z,23.48
2022-12-12T17:34:15.679Z,25.38
2022-12-12T17:36:42.383Z,24.08
2022-12-12T17:39:09.059Z,26.05
2022-12-12T17:41:35.818Z,23.65
2022-12-12T17:44:02.595Z,24.75
2022-12-12T17:46:29.940Z,23.90
2022-12-12T17:48:58.419Z,24.58
2022-12-12T17:51:25.293Z,26.92
2022-12-12T17:53:52.798Z,27.95
2022-12-12T17:56:25.137Z,23.02
2022-12-12T17:58:52.470Z,25.15
2022-12-12T18:01:29.856Z,24.08
2022-12-12T18:03:57.699Z,24.65
2022-12-12T18:06:25.941Z,23.88
2022-12-12T18:08:53.383Z,27.45
2022-12-12T18:11:31.017Z,24.50
2022-12-12T18:14:00.351Z,25.23
2022-12-12T18:16:30.507Z,23.77
2022-12-12T18:18:57.959Z,25.42
2022-12-12T18:21:59.333Z,23.13
2022-12-12T18:26:43.531Z,22.30
2022-12-12T18:29:12.783Z,23.08
2022-12-12T18:31:40.034Z,24.27
2022-12-12T18:34:06.956Z,22.73
2022-12-12T18:36:33.790Z,24.55
2022-12-12T18:39:03.010Z,25.33
2022-12-12T18:41:31.566Z,25.13
2022-12-12T18:43:58.813Z,24.73
2022-12-12T18:46:27.688Z,25.55
2022-12-12T18:48:54.953Z,26.60
2022-12-12T18:51:24.511Z,27.00
2022-12-12T18:53:53.247Z,26.05
2022-12-12T18:56:23.654Z,25.77
2022-12-12T18:58:56.313Z,26.90
2022-12-12T19:01:26.295Z,24.00
2022-12-12T19:03:56.749Z,28.90
2022-12-12T19:06:27.127Z,27.15
2022-12-12T19:08:54.348Z,25.08
2022-12-12T19:11:21.137Z,24.95
2022-12-12T19:13:47.797Z,24.45
2022-12-12T19:16:17.208Z,26.63
2022-12-12T19:18:44.290Z,27.02
2022-12-12T19:21:14.572Z,25.05
2022-12-12T19:23:41.419Z,26.77
2022-12-12T19:26:13.542Z,26.08
2022-12-12T19:28:40.321Z,27.35
2022-12-12T19:31:14.717Z,26.05
2022-12-12T19:33:43.378Z,25.98
2022-12-12T19:36:16.828Z,26.20
2022-12-12T19:38:44.672Z,25.27
2022-12-12T19:41:14.024Z,24.65
2022-12-12T19:43:44.695Z,26.15
2022-12-12T19:46:17.096Z,22.95
2022-12-12T19:48:44.997Z,25.02
2022-12-12T19:51:18.315Z,26.80
2022-12-12T19:53:47.626Z,24.08
2022-12-12T19:56:16.734Z,23.88
2022-12-12T19:58:44.218Z,25.65
2022-12-12T20:01:18.174Z,24.70
2022-12-12T20:04:01.156Z,32.38
2022-12-12T20:06:28.035Z,25.42
2022-12-12T20:08:55.580Z,24.60
2022-12-12T20:11:24.061Z,24.83
2022-12-12T20:13:56.099Z,25.98
2022-12-12T20:16:25.871Z,24.10
2022-12-12T20:18:53.427Z,25.13
2022-12-12T20:21:59.059Z,27.98
2022-12-12T20:24:14.535Z,27.30
2022-12-12T20:26:42.017Z,24.23
2022-12-12T20:29:09.221Z,24.65
2022-12-12T20:31:39.180Z,23.88
2022-12-12T20:34:05.996Z,26.03
2022-12-12T20:36:36.197Z,24.42
2022-12-12T20:39:06.282Z,24.13
2022-12-12T20:41:36.640Z,23.45
2022-12-12T20:44:04.777Z,23.25
2022-12-12T20:46:34.921Z,23.63
2022-12-12T20:49:03.696Z,23.65
2022-12-12T20:52:01.118Z,22.98
2022-12-12T20:54:21.412Z,22.65
2022-12-12T20:56:50.914Z,23.17
2022-12-12T20:59:17.756Z,22.75
2022-12-12T21:01:44.661Z,24.08
2022-12-12T21:04:11.499Z,24.70
2022-12-12T21:06:40.888Z,23.40
2022-12-12T21:09:09.977Z,23.33
2022-12-12T21:11:38.284Z,24.42
2022-12-12T21:14:06.462Z,22.63
2022-12-12T21:16:36.994Z,22.83
2022-12-12T21:19:07.283Z,24.67
2022-12-12T21:21:34.383Z,23.38
2022-12-12T21:24:01.464Z,22.95
2022-12-12T21:26:30.061Z,21.80
2022-12-12T21:28:58.373Z,23.65
2022-12-12T21:31:28.446Z,23.90
2022-12-12T21:33:55.322Z,22.77
2022-12-12T21:36:24.042Z,22.90
2022-12-12T21:38:52.035Z,23.33
2022-12-12T21:41:20.509Z,23.20
2022-12-12T21:43:47.368Z,23.80
2022-12-12T21:46:25.494Z,20.85
2022-12-12T21:49:12.078Z,22.40
2022-12-12T21:51:42.661Z,22.00
2022-12-12T21:54:10.828Z,22.95
2022-12-12T21:56:37.823Z,21.65
2022-12-12T21:59:04.603Z,22.15
2022-12-12T22:01:32.361Z,22.42
2022-12-12T22:04:00.116Z,23.88
2022-12-12T22:06:29.413Z,22.88
2022-12-12T22:08:56.791Z,23.45
2022-12-12T22:11:40.179Z,23.10
2022-12-12T22:14:11.471Z,21.77
2022-12-12T22:16:38.370Z,21.92
2022-12-12T22:19:08.455Z,20.77
2022-12-12T22:21:35.819Z,22.77
2022-12-12T22:24:03.179Z,20.48
2022-12-12T22:26:35.704Z,21.23
2022-12-12T22:29:06.202Z,21.98
2022-12-12T22:31:35.572Z,21.20
2022-12-12T22:34:10.075Z,21.10
2022-12-12T22:36:38.313Z,21.27
2022-12-12T22:39:06.934Z,21.08
2022-12-12T22:41:34.083Z,20.73
2022-12-12T22:44:04.039Z,22.50
2022-12-12T22:46:31.406Z,20.80
2022-12-12T22:49:00.327Z,20.13
2022-12-12T22:51:29.638Z,20.05
2022-12-12T22:53:58.627Z,20.23
2022-12-12T22:56:28.005Z,20.58
2022-12-12T22:58:55.282Z,21.13
2022-12-12T23:01:24.238Z,19.40
2022-12-12T23:03:52.125Z,20.50
2022-12-12T23:06:22.062Z,18.58
2022-12-12T23:08:54.194Z,18.60
2022-12-12T23:11:23.151Z,19.30
2022-12-12T23:13:53.168Z,19.67
2022-12-12T23:16:21.847Z,20.20
2022-12-12T23:18:48.904Z,19.42
2022-12-12T23:21:19.062Z,20.70
2022-12-12T23:23:46.706Z,19.45
2022-12-12T23:26:20.056Z,18.60
2022-12-12T23:28:48.093Z,20.20
2022-12-12T23:31:33.382Z,20.20
2022-12-12T23:34:03.464Z,18.65
2022-12-12T23:36:31.071Z,18.88
2022-12-12T23:39:00.295Z,19.40
2022-12-12T23:41:28.205Z,19.63
2022-12-12T23:43:56.143Z,20.73
2022-12-12T23:46:29.630Z,19.67
2022-12-12T23:49:02.333Z,20.83
2022-12-12T23:51:31.001Z,19.48
2022-12-12T23:53:59.127Z,20.02
2022-12-12T23:56:26.704Z,19.90
2022-12-12T23:58:55.235Z,18.92
